Time;durP1;ratioP1;P1;durP2;ratioP2;P2;SDS_P1;SDS_P2;PMS_P1;PMS_P2;Temp;Humidity;BMP_temperature;BMP_pressure;BME280_temperature;BME280_humidity;BME280_pressure;Samples;Min_cycle;Max_cycle;Signal;HPM_P1;HPM_P2
2021/09/11 00:00:21;;;;;;;10.30;7.30;;;18.50;97.90;;;;;;4826437;29;20460;-63
2021/09/11 00:02:48;;;;;;;10.77;6.90;;;18.40;97.90;;;;;;4826323;29;20289;-63
2021/09/11 00:05:16;;;;;;;14.33;7.57;;;18.40;98.00;;;;;;4826376;29;20198;-65
2021/09/11 00:07:42;;;;;;;8.00;6.67;;;18.40;98.10;;;;;;4826660;29;20538;-63
2021/09/11 00:10:10;;;;;;;9.20;7.10;;;18.30;98.10;;;;;;4826216;29;20468;-64
2021/09/11 00:12:37;;;;;;;7.40;6.27;;;18.30;98.20;;;;;;4826750;29;20517;-63
2021/09/11 00:15:04;;;;;;;10.30;7.63;;;18.30;98.30;;;;;;4840185;29;20423;-65
2021/09/11 00:17:30;;;;;;;9.47;6.87;;;18.20;98.30;;;;;;4840298;29;20460;-64
2021/09/11 00:19:55;;;;;;;8.50;7.07;;;18.20;98.40;;;;;;4826020;29;20477;-63
2021/09/11 00:22:21;;;;;;;14.17;7.47;;;18.20;98.40;;;;;;4826624;29;20209;-63
2021/09/11 00:24:46;;;;;;;8.27;6.60;;;18.10;98.40;;;;;;4825963;29;20190;-65
2021/09/11 00:27:12;;;;;;;8.47;7.00;;;18.10;98.50;;;;;;4826497;29;20213;-63
2021/09/11 00:29:38;;;;;;;9.20;6.70;;;18.10;98.60;;;;;;4825885;29;20216;-64
2021/09/11 00:32:07;;;;;;;9.10;6.67;;;18.00;98.60;;;;;;4824863;29;20210;-63
2021/09/11 00:34:32;;;;;;;9.83;7.73;;;18.00;98.60;;;;;;4825825;29;20265;-63
2021/09/11 00:36:58;;;;;;;10.70;7.30;;;17.90;98.60;;;;;;4826249;29;20559;-63
2021/09/11 00:39:24;;;;;;;6.90;6.20;;;17.90;98.80;;;;;;4825774;29;20220;-65
2021/09/11 00:41:50;;;;;;;14.80;7.93;;;17.90;98.90;;;;;;4825644;29;20202;-64
2021/09/11 00:44:16;;;;;;;9.30;6.90;;;17.80;98.80;;;;;;4825910;29;20417;-64
2021/09/11 00:46:42;;;;;;;7.13;6.43;;;17.80;98.80;;;;;;4825777;29;20484;-64
2021/09/11 00:49:08;;;;;;;10.80;7.50;;;17.80;98.80;;;;;;4825815;29;20433;-64
2021/09/11 00:51:33;;;;;;;11.90;6.73;;;17.80;98.80;;;;;;4839471;29;20209;-63
2021/09/11 00:54:00;;;;;;;13.60;6.90;;;17.80;98.80;;;;;;4825790;29;20209;-63
2021/09/11 00:56:28;;;;;;;7.90;6.60;;;17.80;98.90;;;;;;4839489;29;20218;-63
2021/09/11 00:58:54;;;;;;;9.30;7.03;;;17.70;98.90;;;;;;4824898;29;20479;-63
2021/09/11 01:01:19;;;;;;;9.20;6.13;;;17.70;99.00;;;;;;4825229;29;21007;-63
2021/09/11 01:03:45;;;;;;;13.77;7.20;;;17.70;99.00;;;;;;4825558;29;20211;-63
2021/09/11 01:06:11;;;;;;;10.03;7.90;;;17.70;99.10;;;;;;4825445;29;20218;-63
2021/09/11 01:08:39;;;;;;;7.40;6.23;;;17.70;99.10;;;;;;4839588;29;20182;-64
2021/09/11 01:11:04;;;;;;;8.03;6.33;;;17.60;99.20;;;;;;4825232;29;20218;-63
2021/09/11 01:13:33;;;;;;;7.37;6.50;;;17.60;99.20;;;;;;4825379;29;20469;-64
2021/09/11 01:15:59;;;;;;;11.57;7.10;;;17.60;99.20;;;;;;4825223;29;20195;-63
2021/09/11 01:18:25;;;;;;;15.50;7.57;;;17.60;99.60;;;;;;4839259;29;20489;-64
2021/09/11 01:20:51;;;;;;;8.80;7.10;;;17.60;99.30;;;;;;4825069;29;20951;-65
2021/09/11 01:23:17;;;;;;;8.47;7.07;;;17.50;99.30;;;;;;4825349;29;20414;-64
2021/09/11 01:25:42;;;;;;;9.67;7.80;;;17.50;99.30;;;;;;4824892;29;20418;-63
2021/09/11 01:28:08;;;;;;;8.50;7.10;;;17.50;99.40;;;;;;4825301;29;20239;-64
2021/09/11 01:30:34;;;;;;;8.83;6.90;;;17.50;99.50;;;;;;4825079;29;20221;-65
2021/09/11 01:32:59;;;;;;;14.47;8.13;;;17.40;99.50;;;;;;4839184;29;20225;-63
2021/09/11 01:35:25;;;;;;;10.63;7.83;;;17.40;99.60;;;;;;4838863;29;20200;-64
2021/09/11 01:37:51;;;;;;;24.30;8.27;;;17.30;99.70;;;;;;4825308;29;20209;-64
2021/09/11 01:40:16;;;;;;;9.83;7.90;;;17.20;99.60;;;;;;4825035;29;20425;-64
2021/09/11 01:42:42;;;;;;;8.40;7.47;;;17.20;99.80;;;;;;4825456;29;20559;-63
2021/09/11 01:45:11;;;;;;;11.30;7.50;;;17.10;99.70;;;;;;4824964;29;20201;-63
2021/09/11 01:47:38;;;;;;;10.07;7.77;;;17.10;99.80;;;;;;4825339;29;20280;-63
2021/09/11 01:50:06;;;;;;;14.37;8.27;;;17.00;99.90;;;;;;4824814;29;20794;-65
2021/09/11 01:52:32;;;;;;;7.20;6.50;;;17.00;99.90;;;;;;4824850;29;20488;-63
2021/09/11 01:54:57;;;;;;;8.00;7.20;;;17.00;99.90;;;;;;4824758;29;20445;-64
2021/09/11 01:57:23;;;;;;;11.93;8.60;;;17.00;99.90;;;;;;4838771;29;20288;-63
2021/09/11 01:59:49;;;;;;;8.53;7.63;;;17.00;99.90;;;;;;4824523;29;20586;-63
2021/09/11 02:02:14;;;;;;;10.00;7.43;;;17.00;99.90;;;;;;4824593;29;20325;-63
2021/09/11 02:04:40;;;;;;;7.40;6.33;;;17.00;99.90;;;;;;4824656;29;20185;-64
2021/09/11 02:07:06;;;;;;;10.10;7.53;;;17.00;99.90;;;;;;4824967;29;20252;-64
2021/09/11 02:09:34;;;;;;;10.10;7.50;;;17.00;99.90;;;;;;4838248;29;20615;-67
2021/09/11 02:12:00;;;;;;;10.53;6.70;;;17.00;99.90;;;;;;4823907;29;20457;-63
2021/09/11 02:14:26;;;;;;;11.03;8.23;;;17.00;99.90;;;;;;4824547;29;20410;-64
2021/09/11 02:16:52;;;;;;;10.23;7.03;;;16.90;99.90;;;;;;4824852;29;20452;-63
2021/09/11 02:19:18;;;;;;;9.37;7.17;;;16.90;99.90;;;;;;4824633;29;20465;-65
2021/09/11 02:21:43;;;;;;;11.90;7.93;;;16.90;99.90;;;;;;4824393;29;20217;-63
2021/09/11 02:24:09;;;;;;;10.67;7.53;;;16.90;99.90;;;;;;4824574;29;20192;-63
2021/09/11 02:26:35;;;;;;;7.67;6.90;;;16.80;99.90;;;;;;4838161;29;20225;-63
2021/09/11 02:29:05;;;;;;;10.37;7.97;;;16.80;99.90;;;;;;4824605;29;20210;-63
2021/09/11 02:31:31;;;;;;;8.37;7.00;;;16.80;99.90;;;;;;4824340;29;20552;-63
2021/09/11 02:33:57;;;;;;;11.57;6.90;;;16.80;99.90;;;;;;4824467;29;20418;-63
2021/09/11 02:36:22;;;;;;;9.40;7.40;;;16.80;99.90;;;;;;4824392;29;20434;-64
2021/09/11 02:38:48;;;;;;;8.60;7.40;;;16.80;99.90;;;;;;4838357;29;20287;-64
2021/09/11 02:41:42;;;;;;;7.57;6.80;;;16.70;99.90;;;;;;4824246;29;20238;-63
2021/09/11 02:44:08;;;;;;;10.23;6.90;;;16.70;99.90;;;;;;4822069;29;20194;-63
2021/09/11 02:46:33;;;;;;;11.07;7.20;;;16.70;99.90;;;;;;4824456;29;20448;-63
2021/09/11 02:49:00;;;;;;;7.93;6.70;;;16.70;99.90;;;;;;4824126;29;20691;-64
2021/09/11 02:51:26;;;;;;;9.53;7.67;;;16.70;99.90;;;;;;4838313;29;20680;-63
2021/09/11 02:53:52;;;;;;;14.13;8.40;;;16.70;99.90;;;;;;4824035;29;20510;-63
2021/09/11 02:56:18;;;;;;;11.23;7.57;;;16.70;99.90;;;;;;4824273;29;20960;-63
2021/09/11 02:58:44;;;;;;;14.00;7.80;;;16.60;99.90;;;;;;4824041;29;20481;-63
2021/09/11 03:01:09;;;;;;;12.57;7.97;;;16.60;99.90;;;;;;4823970;29;20210;-65
2021/09/11 03:03:36;;;;;;;8.37;7.50;;;16.60;99.90;;;;;;4824180;29;20680;-65
2021/09/11 03:06:02;;;;;;;12.77;8.73;;;16.60;99.90;;;;;;4838065;29;20269;-64
2021/09/11 03:08:27;;;;;;;8.63;7.63;;;16.60;99.90;;;;;;4823997;29;20429;-63
2021/09/11 03:10:53;;;;;;;9.63;8.20;;;16.50;99.90;;;;;;4824046;29;20185;-63
2021/09/11 03:13:19;;;;;;;13.40;7.93;;;16.50;99.90;;;;;;4824034;29;20189;-63
2021/09/11 03:15:44;;;;;;;10.03;8.17;;;16.40;99.90;;;;;;4823873;29;20247;-63
2021/09/11 03:18:10;;;;;;;10.80;8.10;;;16.40;99.90;;;;;;4823907;29;20233;-64
2021/09/11 03:20:36;;;;;;;10.23;8.50;;;16.40;99.90;;;;;;4838090;29;20190;-64
2021/09/11 03:23:02;;;;;;;12.57;9.00;;;16.40;99.90;;;;;;4827334;29;20217;-64
2021/09/11 03:25:28;;;;;;;13.63;7.77;;;16.40;99.90;;;;;;4827155;29;20432;-63
2021/09/11 03:27:54;;;;;;;11.10;8.37;;;16.40;99.90;;;;;;4841055;29;20953;-64
2021/09/11 03:30:19;;;;;;;9.10;6.90;;;16.40;99.90;;;;;;4827145;29;20221;-65
2021/09/11 03:32:45;;;;;;;11.53;7.83;;;16.40;99.90;;;;;;4827114;29;20218;-63
2021/09/11 03:35:11;;;;;;;9.67;7.83;;;16.40;99.90;;;;;;4827008;29;20334;-64
2021/09/11 03:37:36;;;;;;;7.63;6.83;;;16.40;99.90;;;;;;4827086;29;20217;-64
2021/09/11 03:40:03;;;;;;;9.73;7.83;;;16.50;99.90;;;;;;4826753;29;20225;-64
2021/09/11 03:42:28;;;;;;;11.83;8.00;;;16.50;99.90;;;;;;4840868;29;20658;-63
2021/09/11 03:44:54;;;;;;;8.43;7.50;;;16.50;99.90;;;;;;4826852;29;20547;-64
2021/09/11 03:47:20;;;;;;;9.07;8.03;;;16.50;99.90;;;;;;4826896;29;20554;-64
2021/09/11 03:49:45;;;;;;;9.47;8.03;;;16.50;99.90;;;;;;4826648;29;20679;-64
2021/09/11 03:52:11;;;;;;;8.77;7.60;;;16.60;99.90;;;;;;4826773;29;20209;-63
2021/09/11 03:54:36;;;;;;;11.50;8.80;;;16.60;99.90;;;;;;4826735;29;20200;-65
2021/09/11 03:57:02;;;;;;;13.33;8.37;;;16.60;99.90;;;;;;4826631;29;20258;-65
2021/09/11 03:59:28;;;;;;;10.90;7.93;;;16.50;99.90;;;;;;4840561;29;20222;-64
2021/09/11 04:01:53;;;;;;;11.00;7.50;;;16.50;99.90;;;;;;4839976;29;20719;-63
2021/09/11 04:04:19;;;;;;;9.20;7.57;;;16.60;99.90;;;;;;4826656;29;20182;-64
2021/09/11 04:06:44;;;;;;;8.90;8.00;;;16.60;99.90;;;;;;4826416;29;20202;-65
2021/09/11 04:09:10;;;;;;;8.23;7.40;;;16.50;99.90;;;;;;4826467;29;20198;-64
2021/09/11 04:11:36;;;;;;;8.87;7.97;;;16.60;99.90;;;;;;4826412;29;20236;-64
2021/09/11 04:14:01;;;;;;;10.20;8.00;;;16.60;99.90;;;;;;4826178;29;20195;-65
2021/09/11 04:16:27;;;;;;;9.30;7.40;;;16.60;99.90;;;;;;4826441;29;20273;-65
2021/09/11 04:18:52;;;;;;;9.07;7.73;;;16.60;99.90;;;;;;4833921;29;20239;-64
2021/09/11 04:21:18;;;;;;;9.30;7.67;;;16.50;99.90;;;;;;4842470;29;20209;-64
2021/09/11 04:23:43;;;;;;;9.97;7.37;;;16.50;99.90;;;;;;4827187;29;20269;-65
2021/09/11 04:26:09;;;;;;;11.00;8.20;;;16.40;99.90;;;;;;4824132;29;20276;-63
2021/09/11 04:28:35;;;;;;;9.67;8.27;;;16.20;99.90;;;;;;4837910;29;20190;-65
2021/09/11 04:31:00;;;;;;;10.80;8.13;;;16.10;99.90;;;;;;4824028;29;20186;-66
2021/09/11 04:33:26;;;;;;;10.00;9.00;;;16.10;99.90;;;;;;4823532;29;20197;-64
2021/09/11 04:35:51;;;;;;;10.00;8.17;;;16.00;99.90;;;;;;4825522;29;20190;-63
2021/09/11 04:38:17;;;;;;;15.30;8.97;;;16.00;99.90;;;;;;4825772;29;20782;-64
2021/09/11 04:40:43;;;;;;;12.47;8.50;;;16.00;99.90;;;;;;4839739;29;20197;-66
2021/09/11 04:43:09;;;;;;;10.10;8.83;;;16.00;99.90;;;;;;4839363;29;20444;-64
2021/09/11 04:45:34;;;;;;;9.50;8.20;;;16.00;99.90;;;;;;4841377;29;20249;-64
2021/09/11 04:48:00;;;;;;;17.70;7.80;;;16.10;99.90;;;;;;4833766;29;20227;-63
2021/09/11 04:50:26;;;;;;;12.10;8.30;;;16.10;99.90;;;;;;4839549;29;20499;-64
2021/09/11 04:52:52;;;;;;;14.60;8.80;;;16.10;99.90;;;;;;4833197;29;20468;-63
2021/09/11 04:55:17;;;;;;;13.57;8.63;;;16.10;99.90;;;;;;4840748;29;20272;-65
2021/09/11 04:57:43;;;;;;;11.97;9.40;;;16.20;99.90;;;;;;4834468;29;20202;-64
2021/09/11 05:00:09;;;;;;;13.47;8.30;;;16.20;99.90;;;;;;4828747;29;20257;-64
2021/09/11 05:02:35;;;;;;;13.00;9.00;;;16.10;99.90;;;;;;4836858;29;20285;-64
2021/09/11 05:05:00;;;;;;;9.93;8.20;;;16.10;99.90;;;;;;4841673;29;20795;-63
2021/09/11 05:07:26;;;;;;;10.63;8.90;;;16.00;99.90;;;;;;4837413;29;20202;-65
2021/09/11 05:09:52;;;;;;;12.60;8.20;;;16.00;99.90;;;;;;4825365;29;20214;-64
2021/09/11 05:12:18;;;;;;;11.00;9.20;;;16.00;99.90;;;;;;4830411;29;20202;-63
2021/09/11 05:14:43;;;;;;;14.73;8.97;;;16.00;99.90;;;;;;4838371;29;20453;-66
2021/09/11 05:17:09;;;;;;;16.50;10.53;;;16.00;99.90;;;;;;4837537;29;20208;-64
2021/09/11 05:19:34;;;;;;;14.20;9.20;;;16.00;99.90;;;;;;4825749;29;20234;-64
2021/09/11 05:22:00;;;;;;;13.53;8.63;;;16.00;99.90;;;;;;4823361;29;20217;-64
2021/09/11 05:24:26;;;;;;;13.33;8.70;;;16.00;99.90;;;;;;4823315;29;20705;-65
2021/09/11 05:26:52;;;;;;;10.87;9.00;;;16.10;99.90;;;;;;4825136;29;20202;-64
2021/09/11 05:29:17;;;;;;;13.53;8.77;;;16.10;99.90;;;;;;4823315;29;20186;-63
2021/09/11 05:31:43;;;;;;;10.97;9.20;;;16.10;99.90;;;;;;4823279;29;20453;-64
2021/09/11 05:34:09;;;;;;;14.80;9.73;;;16.10;99.90;;;;;;4824700;29;20193;-65
2021/09/11 05:36:35;;;;;;;12.50;8.70;;;16.10;99.90;;;;;;4827759;29;20217;-64
2021/09/11 05:39:01;;;;;;;11.87;9.47;;;16.20;99.90;;;;;;4834708;29;20231;-64
2021/09/11 05:41:27;;;;;;;8.73;7.90;;;16.20;99.90;;;;;;4837526;29;20529;-64
2021/09/11 05:43:53;;;;;;;12.27;8.33;;;16.20;99.90;;;;;;4832987;29;20436;-65
2021/09/11 05:46:19;;;;;;;11.67;9.57;;;16.30;99.90;;;;;;4845918;29;20213;-63
2021/09/11 05:48:44;;;;;;;11.90;9.27;;;16.40;99.90;;;;;;4839696;29;20919;-64
2021/09/11 05:51:10;;;;;;;10.13;8.83;;;16.40;99.90;;;;;;4835745;29;20237;-64
2021/09/11 05:53:36;;;;;;;13.40;9.47;;;16.50;99.90;;;;;;4834692;29;20192;-64
2021/09/11 05:56:02;;;;;;;10.80;9.20;;;16.50;99.90;;;;;;4832776;29;20225;-66
2021/09/11 05:58:29;;;;;;;11.67;9.13;;;16.60;99.90;;;;;;4838653;29;20638;-64
2021/09/11 06:00:55;;;;;;;9.70;8.30;;;16.70;99.90;;;;;;4836961;29;20485;-64
2021/09/11 06:03:20;;;;;;;10.47;9.40;;;16.70;99.90;;;;;;4836928;29;20880;-63
2021/09/11 06:05:46;;;;;;;11.40;9.23;;;16.80;99.90;;;;;;4831723;29;20437;-65
2021/09/11 06:08:12;;;;;;;12.37;9.23;;;16.90;99.90;;;;;;4821548;29;20189;-63
2021/09/11 06:10:37;;;;;;;10.03;9.03;;;16.90;99.90;;;;;;4822192;29;20579;-66
2021/09/11 06:13:03;;;;;;;14.17;10.33;;;17.00;99.90;;;;;;4832971;29;20257;-66
2021/09/11 06:15:29;;;;;;;11.27;10.07;;;17.00;99.90;;;;;;4832263;29;20258;-66
2021/09/11 06:17:54;;;;;;;11.50;10.40;;;17.10;99.90;;;;;;4830037;29;20437;-64
2021/09/11 06:20:20;;;;;;;10.43;9.10;;;17.20;99.90;;;;;;4828240;29;20205;-65
2021/09/11 06:22:46;;;;;;;11.57;9.70;;;17.30;99.90;;;;;;4830178;29;20487;-64
2021/09/11 06:25:13;;;;;;;12.70;9.47;;;17.40;99.90;;;;;;4827392;29;20277;-64
2021/09/11 06:27:40;;;;;;;17.33;10.20;;;17.50;99.90;;;;;;4828667;29;20452;-64
2021/09/11 06:30:08;;;;;;;12.10;10.13;;;17.50;99.90;;;;;;4841945;29;20444;-66
2021/09/11 06:32:33;;;;;;;13.20;10.60;;;17.60;99.90;;;;;;4831881;29;20555;-67
2021/09/11 06:34:59;;;;;;;13.30;9.70;;;17.70;99.90;;;;;;4828553;29;20535;-64
2021/09/11 06:37:25;;;;;;;12.40;9.90;;;17.80;99.90;;;;;;4829619;29;20220;-64
2021/09/11 06:39:50;;;;;;;13.33;10.90;;;17.90;99.90;;;;;;4828250;29;20225;-66
2021/09/11 06:42:19;;;;;;;15.07;11.33;;;18.00;99.90;;;;;;4832851;29;20216;-66
2021/09/11 06:44:46;;;;;;;17.03;11.30;;;18.10;99.90;;;;;;4829971;29;20241;-65
2021/09/11 06:47:12;;;;;;;11.40;9.70;;;18.20;99.90;;;;;;4821661;29;20800;-64
2021/09/11 06:49:38;;;;;;;12.07;10.10;;;18.20;99.90;;;;;;4830928;29;20489;-67
2021/09/11 06:52:04;;;;;;;10.20;9.17;;;18.30;99.90;;;;;;4837428;29;20810;-67
2021/09/11 06:54:30;;;;;;;15.50;9.97;;;18.40;99.90;;;;;;4837426;29;20177;-66
2021/09/11 06:56:57;;;;;;;16.23;10.60;;;18.50;99.90;;;;;;4831109;29;20808;-66
2021/09/11 06:59:23;;;;;;;17.43;11.67;;;18.60;99.90;;;;;;4844902;29;20259;-65
2021/09/11 07:01:49;;;;;;;9.53;8.63;;;18.70;99.90;;;;;;4830114;29;20489;-66
2021/09/11 07:04:16;;;;;;;12.10;8.97;;;18.80;99.90;;;;;;4832384;29;20439;-66
2021/09/11 07:06:41;;;;;;;11.20;10.17;;;18.90;99.90;;;;;;4834695;29;20236;-66
2021/09/11 07:09:07;;;;;;;12.60;10.20;;;19.00;99.90;;;;;;4829990;29;20433;-66
2021/09/11 07:11:34;;;;;;;10.90;9.47;;;19.10;99.90;;;;;;4831626;29;20217;-64
2021/09/11 07:13:59;;;;;;;10.97;9.20;;;19.10;99.90;;;;;;4828548;29;20210;-64
2021/09/11 07:16:26;;;;;;;9.67;8.67;;;19.20;99.90;;;;;;4830612;29;20847;-66
2021/09/11 07:18:51;;;;;;;11.73;9.17;;;19.40;99.90;;;;;;4830586;29;20221;-66
2021/09/11 07:21:17;;;;;;;8.80;7.90;;;19.50;99.90;;;;;;4831885;29;20581;-64
2021/09/11 07:23:42;;;;;;;8.63;7.30;;;19.60;99.90;;;;;;4832837;29;20198;-65
2021/09/11 07:26:09;;;;;;;9.90;7.60;;;19.70;99.90;;;;;;4837955;29;20249;-63
2021/09/11 07:28:35;;;;;;;9.90;7.83;;;19.80;99.90;;;;;;4830174;29;20269;-65
2021/09/11 07:31:04;;;;;;;7.77;6.97;;;19.90;99.90;;;;;;4832480;29;20892;-66
2021/09/11 07:33:30;;;;;;;7.83;6.63;;;20.00;99.90;;;;;;4832320;29;20448;-65
2021/09/11 07:35:55;;;;;;;10.67;8.20;;;20.10;99.90;;;;;;4830736;29;20983;-66
2021/09/11 07:38:21;;;;;;;14.90;8.40;;;20.20;99.90;;;;;;4832634;29;20794;-66
2021/09/11 07:40:46;;;;;;;9.00;7.03;;;20.30;99.90;;;;;;4833325;29;20184;-66
2021/09/11 07:43:12;;;;;;;11.93;7.23;;;20.40;99.60;;;;;;4833500;29;20194;-66
2021/09/11 07:45:39;;;;;;;8.50;7.60;;;20.50;99.60;;;;;;4826966;29;20267;-65
2021/09/11 07:48:06;;;;;;;10.17;7.40;;;20.60;99.70;;;;;;4828100;29;20382;-62
2021/09/11 07:50:35;;;;;;;7.97;6.40;;;20.70;99.60;;;;;;4826526;29;20449;-62
2021/09/11 07:53:02;;;;;;;9.77;6.50;;;20.80;99.70;;;;;;4832154;29;20483;-65
2021/09/11 07:55:28;;;;;;;10.50;7.40;;;20.90;99.40;;;;;;4830603;29;20538;-64
2021/09/11 07:57:54;;;;;;;15.07;7.80;;;21.00;99.40;;;;;;4835676;29;20475;-62
2021/09/11 08:00:20;;;;;;;9.47;6.23;;;21.10;99.50;;;;;;4838103;29;20566;-63
2021/09/11 08:02:45;;;;;;;9.77;6.43;;;21.20;99.20;;;;;;4834377;29;20698;-63
2021/09/11 08:05:11;;;;;;;13.57;6.77;;;21.40;99.00;;;;;;4832530;29;20192;-63
2021/09/11 08:07:38;;;;;;;7.87;6.50;;;21.50;98.80;;;;;;4827014;29;20218;-63
2021/09/11 08:10:05;;;;;;;8.07;6.63;;;21.60;98.80;;;;;;4828321;29;20535;-65
2021/09/11 08:12:30;;;;;;;9.17;6.73;;;21.70;98.70;;;;;;4830606;29;20977;-66
2021/09/11 08:14:58;;;;;;;8.23;6.60;;;21.80;98.70;;;;;;4831832;29;20436;-63
2021/09/11 08:17:24;;;;;;;10.80;7.40;;;21.90;98.40;;;;;;4831397;29;20201;-63
2021/09/11 08:19:50;;;;;;;8.40;7.70;;;22.10;97.60;;;;;;4819626;29;20851;-62
2021/09/11 08:22:18;;;;;;;11.27;6.20;;;22.30;97.40;;;;;;4827210;29;20458;-63
2021/09/11 08:24:44;;;;;;;7.10;5.97;;;22.50;97.10;;;;;;4828245;29;20445;-62
2021/09/11 08:27:10;;;;;;;10.70;6.70;;;22.80;96.60;;;;;;4827234;29;20477;-65
2021/09/11 08:29:36;;;;;;;10.57;6.37;;;23.10;96.50;;;;;;4836083;29;20190;-65
2021/09/11 08:32:08;;;;;;;8.40;6.30;;;23.30;96.30;;;;;;4834241;29;20816;-63
2021/09/11 08:34:37;;;;;;;10.40;5.83;;;23.50;95.80;;;;;;4836831;29;20189;-62
2021/09/11 08:37:03;;;;;;;7.03;6.00;;;23.70;95.70;;;;;;4833505;29;21013;-63
2021/09/11 08:39:29;;;;;;;15.60;7.33;;;23.90;95.20;;;;;;4830741;29;20493;-65
2021/09/11 08:41:56;;;;;;;10.63;8.87;;;24.10;94.70;;;;;;4829185;29;20214;-65
2021/09/11 08:44:23;;;;;;;9.53;8.63;;;24.30;94.40;;;;;;4829605;29;20218;-63
2021/09/11 08:46:48;;;;;;;9.37;6.63;;;24.50;94.50;;;;;;4823541;29;20529;-65
2021/09/11 08:49:15;;;;;;;12.03;7.70;;;24.60;94.30;;;;;;4829545;29;20439;-64
2021/09/11 08:51:43;;;;;;;9.17;5.80;;;24.70;94.30;;;;;;4830205;29;20481;-65
2021/09/11 08:54:09;;;;;;;7.87;5.00;;;24.70;93.90;;;;;;4832456;29;20468;-64
2021/09/11 08:56:44;;;;;;;12.73;5.50;;;24.70;93.70;;;;;;4828060;29;20466;-63
2021/09/11 08:59:17;;;;;;;6.27;5.33;;;24.80;93.60;;;;;;4831281;29;20484;-63
2021/09/11 09:01:59;;;;;;;12.50;6.17;;;24.80;93.40;;;;;;4834763;29;20470;-65
2021/09/11 09:04:44;;;;;;;9.23;5.50;;;24.80;93.40;;;;;;4831419;29;20450;-64
2021/09/11 09:07:10;;;;;;;11.07;6.00;;;24.80;93.20;;;;;;4835477;29;20490;-64
2021/09/11 09:09:41;;;;;;;7.13;5.47;;;24.70;93.00;;;;;;4830582;29;20470;-64
2021/09/11 09:12:17;;;;;;;6.70;4.87;;;24.80;93.00;;;;;;4834390;29;20965;-64
2021/09/11 09:15:07;;;;;;;9.53;4.73;;;24.80;92.90;;;;;;4830926;29;20427;-61
2021/09/11 09:17:44;;;;;;;7.27;5.70;;;24.80;92.70;;;;;;4835832;29;20470;-61
2021/09/11 09:20:25;;;;;;;9.40;5.60;;;24.90;92.40;;;;;;4834583;29;20518;-61
2021/09/11 09:23:16;;;;;;;8.13;4.80;;;24.90;92.30;;;;;;4831628;29;20489;-66
2021/09/11 09:25:42;;;;;;;8.07;5.50;;;24.90;92.30;;;;;;4834596;29;20885;-67
2021/09/11 09:28:13;;;;;;;5.20;4.70;;;24.90;91.20;;;;;;4832689;29;20537;-63
2021/09/11 09:30:43;;;;;;;6.53;5.37;;;25.00;91.70;;;;;;4831317;29;20266;-62
2021/09/11 09:33:23;;;;;;;7.13;4.20;;;25.00;91.50;;;;;;4837021;29;20442;-62
2021/09/11 09:35:50;;;;;;;16.93;6.70;;;25.00;91.70;;;;;;4836510;29;20437;-61
2021/09/11 09:38:16;;;;;;;4.97;4.40;;;25.00;91.90;;;;;;4831990;29;20450;-62
2021/09/11 09:40:46;;;;;;;8.70;5.23;;;25.00;91.50;;;;;;4828615;29;20450;-66
2021/09/11 09:43:26;;;;;;;9.17;4.83;;;25.00;91.90;;;;;;4833705;29;20813;-66
2021/09/11 09:46:02;;;;;;;6.57;4.53;;;25.00;91.50;;;;;;4831893;29;20430;-66
2021/09/11 09:48:28;;;;;;;6.90;5.50;;;25.00;91.50;;;;;;4825533;29;20553;-66
2021/09/11 09:51:08;;;;;;;6.33;5.20;;;25.00;90.50;;;;;;4833175;29;20543;-62
2021/09/11 09:53:36;;;;;;;8.90;6.33;;;25.00;90.30;;;;;;4828773;29;21011;-66
2021/09/11 09:56:03;;;;;;;25.90;16.57;;;25.20;90.10;;;;;;4827325;29;20472;-66
2021/09/11 09:58:30;;;;;;;8.73;4.60;;;25.20;88.80;;;;;;4823932;29;20886;-65
2021/09/11 10:00:58;;;;;;;11.20;5.70;;;25.30;89.00;;;;;;4827134;29;20956;-63
2021/09/11 10:03:25;;;;;;;6.70;5.27;;;25.40;88.80;;;;;;4831249;29;20489;-63
2021/09/11 10:05:56;;;;;;;5.97;4.80;;;25.50;88.10;;;;;;4828332;29;20426;-63
2021/09/11 10:08:22;;;;;;;6.50;5.17;;;25.50;86.60;;;;;;4825631;29;20534;-66
2021/09/11 10:10:49;;;;;;;10.23;7.33;;;25.60;88.00;;;;;;4830745;29;20530;-67
2021/09/11 10:13:18;;;;;;;11.47;7.00;;;25.60;88.10;;;;;;4828512;29;20474;-67
2021/09/11 10:15:51;;;;;;;6.27;4.67;;;25.60;88.70;;;;;;4827606;29;20481;-66
2021/09/11 10:18:32;;;;;;;7.00;4.07;;;25.70;88.00;;;;;;4822248;29;20471;-66
2021/09/11 10:21:18;;;;;;;5.33;3.90;;;25.80;85.60;;;;;;4825818;29;20435;-66
2021/09/11 10:24:15;;;;;;;5.30;3.37;;;25.90;85.00;;;;;;4823873;29;20444;-62
2021/09/11 10:27:07;;;;;;;4.93;3.73;;;26.00;84.40;;;;;;4822311;29;20520;-63
2021/09/11 10:29:43;;;;;;;5.63;4.30;;;26.00;85.50;;;;;;4826696;29;20559;-63
2021/09/11 10:32:20;;;;;;;5.10;4.00;;;26.10;84.10;;;;;;4825295;29;20833;-62
2021/09/11 10:35:09;;;;;;;6.90;4.07;;;26.10;86.30;;;;;;4831509;29;20870;-65
2021/09/11 10:37:47;;;;;;;5.27;3.10;;;26.10;83.90;;;;;;4826871;29;20551;-63
2021/09/11 10:40:32;;;;;;;4.90;3.53;;;26.20;84.50;;;;;;4835130;29;20492;-66
2021/09/11 10:46:04;;;;;;;8.20;4.63;;;26.20;82.50;;;;;;4832147;29;20495;-63
2021/09/11 10:48:47;;;;;;;12.10;3.43;;;26.20;82.20;;;;;;4849692;29;20447;-63
2021/09/11 10:51:44;;;;;;;5.40;3.90;;;26.20;85.10;;;;;;4832470;29;20790;-63
2021/09/11 10:54:26;;;;;;;6.10;4.53;;;26.30;83.00;;;;;;4838939;29;20500;-64
2021/09/11 10:57:00;;;;;;;4.37;3.97;;;26.30;84.20;;;;;;4830211;29;20564;-68
2021/09/11 10:59:37;;;;;;;9.13;4.30;;;26.30;83.70;;;;;;4822532;29;20487;-67
2021/09/11 11:02:07;;;;;;;4.60;3.50;;;26.30;86.10;;;;;;4833394;29;20486;-64
2021/09/11 11:04:49;;;;;;;4.63;3.50;;;26.30;84.30;;;;;;4834310;29;20958;-64
2021/09/11 11:07:22;;;;;;;5.40;3.20;;;26.30;78.70;;;;;;4833721;29;20874;-65
2021/09/11 11:09:49;;;;;;;10.30;5.80;;;26.30;82.60;;;;;;4833385;29;20448;-67
2021/09/11 11:12:20;;;;;;;4.70;4.03;;;26.30;79.40;;;;;;4833525;29;21010;-67
2021/09/11 11:14:46;;;;;;;5.03;3.70;;;26.40;78.70;;;;;;4826813;29;20520;-64
2021/09/11 11:17:13;;;;;;;4.83;3.77;;;26.50;81.80;;;;;;4838423;29;20985;-66
2021/09/11 11:19:44;;;;;;;3.70;3.37;;;26.40;83.70;;;;;;4835559;29;20471;-65
2021/09/11 11:22:24;;;;;;;3.93;3.53;;;26.40;84.80;;;;;;4834563;29;20910;-64
2021/09/11 11:24:50;;;;;;;9.03;4.40;;;26.30;85.80;;;;;;4834170;29;20949;-64
2021/09/11 11:27:19;;;;;;;3.77;3.40;;;26.20;85.60;;;;;;4833541;29;20472;-66
2021/09/11 11:29:47;;;;;;;7.40;3.90;;;26.10;86.20;;;;;;4839098;29;20518;-66
2021/09/11 11:32:13;;;;;;;4.10;3.20;;;26.10;84.40;;;;;;4836223;29;20464;-66
2021/09/11 11:34:41;;;;;;;5.17;3.60;;;26.10;81.90;;;;;;4840634;29;20489;-67
2021/09/11 11:37:09;;;;;;;12.10;6.50;;;26.10;84.80;;;;;;4841128;29;20455;-64
2021/09/11 11:39:46;;;;;;;6.63;4.40;;;26.10;85.30;;;;;;4842544;29;20479;-64
2021/09/11 11:42:12;;;;;;;4.17;3.43;;;26.10;85.40;;;;;;4840809;29;20611;-66
2021/09/11 11:44:46;;;;;;;5.67;3.83;;;26.00;84.10;;;;;;4833050;29;20953;-66
2021/09/11 11:47:24;;;;;;;8.13;3.97;;;26.00;86.00;;;;;;4833878;29;20757;-66
2021/09/11 11:49:52;;;;;;;10.87;4.27;;;26.00;83.60;;;;;;4834207;29;20460;-66
2021/09/11 11:52:19;;;;;;;9.60;4.07;;;26.00;85.50;;;;;;4838058;29;20452;-66
2021/09/11 11:54:48;;;;;;;8.30;5.10;;;26.00;86.40;;;;;;4835141;29;20439;-68
2021/09/11 11:57:17;;;;;;;6.80;3.53;;;26.10;85.40;;;;;;4832250;29;20989;-64
2021/09/11 11:59:43;;;;;;;9.43;3.67;;;26.00;86.60;;;;;;4832392;29;20510;-65
2021/09/11 12:02:20;;;;;;;3.83;3.47;;;26.00;84.30;;;;;;4829901;29;20552;-65
2021/09/11 12:04:47;;;;;;;8.93;4.30;;;26.10;84.70;;;;;;4830783;29;20498;-64
2021/09/11 12:07:30;;;;;;;5.97;5.37;;;26.10;81.60;;;;;;4830648;29;20484;-64
2021/09/11 12:10:00;;;;;;;7.17;4.53;;;26.10;84.50;;;;;;4824090;29;20452;-65
2021/09/11 12:12:47;;;;;;;7.13;4.10;;;26.20;85.00;;;;;;4824568;29;21122;-62
2021/09/11 12:15:18;;;;;;;3.60;3.30;;;26.20;80.70;;;;;;4834496;29;20463;-66
2021/09/11 12:17:51;;;;;;;9.10;3.77;;;26.30;80.70;;;;;;4830109;29;20467;-66
2021/09/11 12:20:17;;;;;;;10.00;4.30;;;26.40;79.60;;;;;;4833219;29;21053;-66
2021/09/11 12:22:44;;;;;;;6.73;3.80;;;26.40;82.30;;;;;;4831028;29;20471;-67
2021/09/11 12:25:10;;;;;;;32.40;7.03;;;26.40;81.90;;;;;;4833668;29;20475;-68
2021/09/11 12:27:36;;;;;;;10.53;3.70;;;26.50;80.30;;;;;;4840254;29;20870;-63
2021/09/11 12:30:07;;;;;;;6.07;4.10;;;26.60;79.10;;;;;;4836585;29;20201;-64
2021/09/11 12:32:33;;;;;;;4.40;4.00;;;26.70;77.40;;;;;;4830750;29;20487;-67
2021/09/11 12:35:09;;;;;;;7.20;4.00;;;26.80;81.50;;;;;;4837135;29;20849;-67
2021/09/11 12:37:52;;;;;;;4.00;3.60;;;26.80;81.40;;;;;;4822927;29;20567;-67
2021/09/11 12:40:18;;;;;;;11.77;4.90;;;26.80;82.90;;;;;;4829489;29;20594;-64
2021/09/11 12:42:44;;;;;;;26.73;5.03;;;26.70;83.80;;;;;;4831500;29;20448;-64
2021/09/11 12:45:11;;;;;;;12.90;4.50;;;26.60;81.00;;;;;;4835865;29;20479;-68
2021/09/11 12:47:37;;;;;;;5.47;3.47;;;26.70;79.30;;;;;;4831779;29;20228;-68